createdAt,value
2018-05-03T00:00:55.324Z,0
2018-05-03T00:02:05.591Z,0
2018-05-03T00:03:15.700Z,0
2018-05-03T00:04:25.432Z,0
2018-05-03T00:05:35.169Z,0
2018-05-03T00:06:44.906Z,0
2018-05-03T00:07:54.910Z,0
2018-05-03T00:09:04.653Z,0
2018-05-03T00:10:14.396Z,0
2018-05-03T00:11:24.411Z,0
2018-05-03T00:12:34.420Z,0
2018-05-03T00:13:44.155Z,0
2018-05-03T00:14:54.159Z,0
2018-05-03T00:16:03.642Z,0
2018-05-03T00:17:13.645Z,0
2018-05-03T00:18:23.699Z,0
2018-05-03T00:19:33.720Z,0
2018-05-03T00:20:43.735Z,0
2018-05-03T00:21:53.737Z,0
2018-05-03T00:23:03.584Z,0
2018-05-03T00:24:13.596Z,0
2018-05-03T00:25:23.596Z,0
2018-05-03T00:26:33.074Z,0
2018-05-03T00:27:43.093Z,0
2018-05-03T00:28:53.093Z,0
2018-05-03T00:30:02.832Z,0
2018-05-03T00:31:12.042Z,0
2018-05-03T00:32:22.059Z,0
2018-05-03T00:33:32.060Z,0
2018-05-03T00:34:42.063Z,0
2018-05-03T00:35:52.070Z,0
2018-05-03T00:37:02.088Z,0
2018-05-03T00:38:12.095Z,0
2018-05-03T00:39:21.563Z,0
2018-05-03T00:40:31.598Z,0
2018-05-03T00:41:41.593Z,0
2018-05-03T00:42:51.062Z,0
2018-05-03T00:44:00.799Z,0
2018-05-03T00:45:10.537Z,0
2018-05-03T00:46:20.541Z,0
2018-05-03T00:47:30.017Z,0
2018-05-03T00:48:40.020Z,0
2018-05-03T00:49:49.756Z,0
2018-05-03T00:50:59.756Z,0
2018-05-03T00:52:09.506Z,0
2018-05-03T00:53:19.240Z,0
2018-05-03T00:54:28.706Z,0
2018-05-03T00:55:38.177Z,0
2018-05-03T00:56:47.911Z,0
2018-05-03T00:57:57.970Z,0
2018-05-03T00:59:08.058Z,0
2018-05-03T01:00:17.800Z,0
2018-05-03T01:01:27.533Z,0
2018-05-03T01:02:37.536Z,0
2018-05-03T01:03:47.541Z,0
2018-05-03T01:04:56.475Z,0
2018-05-03T01:06:05.947Z,0
2018-05-03T01:07:15.416Z,0
2018-05-03T01:08:25.421Z,0
2018-05-03T01:09:34.637Z,0
2018-05-03T01:10:44.375Z,0
2018-05-03T01:11:54.126Z,0
2018-05-03T01:13:03.865Z,0
2018-05-03T01:14:13.873Z,0
2018-05-03T01:15:23.875Z,0
2018-05-03T01:16:33.876Z,0
2018-05-03T01:17:43.882Z,0
2018-05-03T01:18:53.885Z,0
2018-05-03T01:20:03.632Z,0
2018-05-03T01:21:13.105Z,0
2018-05-03T01:22:23.105Z,0
2018-05-03T01:23:32.591Z,0
2018-05-03T01:24:42.095Z,0
2018-05-03T01:25:52.108Z,0
2018-05-03T01:27:01.849Z,0
2018-05-03T01:28:11.056Z,0
2018-05-03T01:29:21.061Z,0
2018-05-03T01:30:31.065Z,0
2018-05-03T01:31:41.064Z,0
2018-05-03T01:32:51.070Z,0
2018-05-03T01:34:00.806Z,0
2018-05-03T01:35:10.010Z,0
2018-05-03T01:36:20.012Z,0
2018-05-03T01:37:30.025Z,0
2018-05-03T01:38:39.763Z,0
2018-05-03T01:39:49.235Z,0
2018-05-03T01:40:58.984Z,0
2018-05-03T01:42:08.737Z,0
2018-05-03T01:43:18.477Z,0
2018-05-03T01:44:28.206Z,0
2018-05-03T01:45:38.228Z,0
2018-05-03T01:46:48.233Z,0
2018-05-03T01:47:58.236Z,0
2018-05-03T01:49:07.702Z,0
2018-05-03T01:50:17.438Z,0
2018-05-03T01:51:27.458Z,0
2018-05-03T01:52:36.925Z,0
2018-05-03T01:53:46.667Z,0
2018-05-03T01:54:56.404Z,0
2018-05-03T01:56:06.146Z,0
2018-05-03T01:57:15.883Z,0
2018-05-03T01:58:25.884Z,0
2018-05-03T01:59:35.352Z,0
2018-05-03T02:00:45.094Z,0
2018-05-03T02:01:54.880Z,0
2018-05-03T02:03:04.890Z,0
2018-05-03T02:04:14.898Z,0
2018-05-03T02:05:24.902Z,0
2018-05-03T02:06:34.668Z,0
2018-05-03T02:07:44.417Z,0
2018-05-03T02:08:54.153Z,0
2018-05-03T02:10:03.897Z,0
2018-05-03T02:11:13.367Z,0
2018-05-03T02:12:23.371Z,0
2018-05-03T02:13:33.112Z,0
2018-05-03T02:14:42.586Z,0
2018-05-03T02:15:52.396Z,0
2018-05-03T02:17:02.402Z,0
2018-05-03T02:18:12.410Z,0
2018-05-03T02:19:22.426Z,0
2018-05-03T02:20:32.432Z,0
2018-05-03T02:21:42.437Z,0
2018-05-03T02:22:52.193Z,0
2018-05-03T02:24:01.928Z,0
2018-05-03T02:25:12.133Z,0
2018-05-03T02:26:22.146Z,0
2018-05-03T02:27:32.189Z,0
2018-05-03T02:28:41.930Z,0
2018-05-03T02:29:51.933Z,0
2018-05-03T02:31:01.676Z,0
2018-05-03T02:32:11.437Z,0
2018-05-03T02:33:21.189Z,0
2018-05-03T02:34:30.933Z,0
2018-05-03T02:35:40.694Z,0
2018-05-03T02:36:50.534Z,0
2018-05-03T02:38:00.547Z,0
2018-05-03T02:39:10.293Z,0
2018-05-03T02:40:20.049Z,0
2018-05-03T02:41:29.526Z,0
2018-05-03T02:42:39.537Z,0
2018-05-03T02:43:49.009Z,0
2018-05-03T02:44:58.754Z,0
2018-05-03T02:46:08.514Z,0
2018-05-03T02:47:18.250Z,0
2018-05-03T02:48:27.992Z,0
2018-05-03T02:49:38.013Z,0
2018-05-03T02:50:47.482Z,0
2018-05-03T02:51:57.494Z,0
2018-05-03T02:53:06.968Z,0
2018-05-03T02:54:16.721Z,0
2018-05-03T02:55:26.746Z,0
2018-05-03T02:56:36.493Z,0
2018-05-03T02:57:46.499Z,0
2018-05-03T02:58:56.507Z,0
2018-05-03T03:00:05.975Z,0
2018-05-03T03:03:48.051Z,0
2018-05-03T03:04:58.062Z,0
2018-05-03T03:06:07.546Z,0
2018-05-03T03:07:17.284Z,0
2018-05-03T03:08:27.025Z,0
2018-05-03T03:09:36.654Z,0
2018-05-03T03:10:46.675Z,0
2018-05-03T03:11:56.151Z,0
2018-05-03T03:13:05.909Z,5
2018-05-03T03:14:15.112Z,5
2018-05-03T03:15:25.124Z,5
2018-05-03T03:16:35.178Z,5
2018-05-03T03:17:45.179Z,5
2018-05-03T03:18:54.380Z,5
2018-05-03T03:20:04.118Z,5
2018-05-03T03:21:14.126Z,5
2018-05-03T03:22:24.132Z,5
2018-05-03T03:23:34.134Z,5
2018-05-03T03:24:44.136Z,5
2018-05-03T03:25:53.873Z,5
2018-05-03T03:27:03.351Z,5
2018-05-03T03:28:13.407Z,5
2018-05-03T03:29:23.492Z,10
2018-05-03T03:30:33.499Z,10
2018-05-03T03:31:42.715Z,15
2018-05-03T03:32:52.724Z,15
2018-05-03T03:34:02.204Z,15
2018-05-03T03:35:11.686Z,20
2018-05-03T03:36:21.160Z,20
2018-05-03T03:37:30.954Z,20
2018-05-03T03:38:40.707Z,15
2018-05-03T03:39:50.820Z,15
2018-05-03T03:41:00.561Z,15
2018-05-03T03:42:10.039Z,20
2018-05-03T03:43:19.777Z,20
2018-05-03T03:44:29.797Z,20
2018-05-03T03:45:39.267Z,20
2018-05-03T03:46:49.012Z,20
2018-05-03T03:47:58.782Z,20
2018-05-03T03:49:08.539Z,20
2018-05-03T03:50:18.011Z,20
2018-05-03T03:51:27.754Z,20
2018-05-03T03:52:37.761Z,25
2018-05-03T03:53:47.501Z,25
2018-05-03T03:54:57.231Z,30
2018-05-03T03:56:06.701Z,35
2018-05-03T03:57:16.184Z,35
2018-05-03T03:58:26.272Z,35
2018-05-03T03:59:35.745Z,30
2018-05-03T04:00:45.763Z,30
2018-05-03T04:01:55.250Z,25
2018-05-03T04:03:05.262Z,30
2018-05-03T04:04:15.047Z,30
2018-05-03T04:05:24.784Z,30
2018-05-03T04:06:34.790Z,25
2018-05-03T04:07:44.817Z,25
2018-05-03T04:08:54.826Z,25
2018-05-03T04:10:04.298Z,25
2018-05-03T04:11:14.309Z,25
2018-05-03T04:12:24.149Z,25
2018-05-03T04:13:34.158Z,25
2018-05-03T04:14:43.894Z,30
2018-05-03T04:15:53.371Z,30
2018-05-03T04:17:02.849Z,30
2018-05-03T04:18:12.055Z,30
2018-05-03T04:19:21.796Z,30
2018-05-03T04:20:31.537Z,30
2018-05-03T04:21:41.566Z,30
2018-05-03T04:22:51.575Z,30
2018-05-03T04:24:01.590Z,30
2018-05-03T04:25:11.056Z,35
2018-05-03T04:26:20.797Z,35
2018-05-03T04:27:30.799Z,40
2018-05-03T04:28:40.546Z,40
2018-05-03T04:29:50.021Z,40
2018-05-03T04:31:00.031Z,40
2018-05-03T04:32:09.764Z,35
2018-05-03T04:33:19.803Z,35
2018-05-03T04:34:29.051Z,35
2018-05-03T04:35:39.061Z,35
2018-05-03T04:36:48.799Z,35
2018-05-03T04:37:58.808Z,35
2018-05-03T04:39:08.294Z,40
2018-05-03T04:40:17.502Z,40
2018-05-03T04:41:27.525Z,40
2018-05-03T04:42:37.262Z,40
2018-05-03T04:43:46.470Z,35
2018-05-03T04:44:56.500Z,35
2018-05-03T04:46:06.250Z,35
2018-05-03T04:47:15.719Z,35
2018-05-03T04:48:25.723Z,35
2018-05-03T04:49:35.734Z,30
2018-05-03T04:50:45.741Z,35
2018-05-03T04:51:55.747Z,40
2018-05-03T04:53:05.760Z,40
2018-05-03T04:54:15.851Z,40
2018-05-03T04:55:25.997Z,40
2018-05-03T04:56:36.004Z,35
2018-05-03T04:57:46.005Z,35
2018-05-03T04:58:55.754Z,35
2018-05-03T05:00:05.239Z,35
2018-05-03T05:01:15.349Z,35
2018-05-03T05:02:25.099Z,35
2018-05-03T05:03:34.850Z,35
2018-05-03T05:04:44.468Z,35
2018-05-03T05:05:54.482Z,35
2018-05-03T05:07:03.952Z,40
2018-05-03T05:08:13.969Z,40
2018-05-03T05:09:23.703Z,45
2018-05-03T05:10:33.357Z,50
2018-05-03T05:11:42.777Z,55
2018-05-03T05:12:52.797Z,55
2018-05-03T05:14:02.804Z,50
2018-05-03T05:15:12.812Z,45
2018-05-03T05:16:22.818Z,45
2018-05-03T05:17:32.826Z,45
2018-05-03T05:18:42.569Z,45
2018-05-03T05:19:52.574Z,45
2018-05-03T05:21:02.588Z,50
2018-05-03T05:22:12.336Z,50
2018-05-03T05:23:22.339Z,50
2018-05-03T05:24:32.393Z,50
2018-05-03T05:25:42.407Z,50
2018-05-03T05:26:52.143Z,50
2018-05-03T05:28:01.891Z,50
2018-05-03T05:29:11.107Z,50
2018-05-03T05:30:21.116Z,50
2018-05-03T05:31:31.125Z,50
2018-05-03T05:32:40.866Z,50
2018-05-03T05:33:50.079Z,50
2018-05-03T05:35:00.109Z,55
2018-05-03T05:36:10.129Z,55
2018-05-03T05:37:20.145Z,55
2018-05-03T05:38:29.812Z,60
2018-05-03T05:39:39.464Z,65
2018-05-03T05:40:48.664Z,70
2018-05-03T05:41:58.668Z,70
2018-05-03T05:43:07.870Z,75
2018-05-03T05:44:17.792Z,80
2018-05-03T05:45:27.805Z,90
2018-05-03T05:46:37.809Z,90
2018-05-03T05:47:47.653Z,90
2018-05-03T05:48:57.660Z,95
2018-05-03T05:50:07.674Z,95
2018-05-03T05:51:17.505Z,100
2018-05-03T05:52:27.595Z,100
2018-05-03T05:53:37.602Z,100
2018-05-03T05:54:47.081Z,100
2018-05-03T05:55:57.083Z,95
2018-05-03T05:57:07.113Z,90
2018-05-03T05:58:16.850Z,85
2018-05-03T05:59:26.854Z,85
2018-05-03T06:00:36.594Z,85
2018-05-03T06:01:46.407Z,85
2018-05-03T06:02:56.144Z,85
2018-05-03T06:04:06.152Z,85
2018-05-03T06:05:15.894Z,90
2018-05-03T06:06:25.639Z,95
2018-05-03T06:07:35.655Z,100
2018-05-03T06:08:45.668Z,110
2018-05-03T06:09:55.738Z,115
2018-05-03T06:11:04.943Z,120
2018-05-03T06:12:14.753Z,120
2018-05-03T06:13:24.802Z,125
2018-05-03T06:14:34.541Z,125
2018-05-03T06:15:44.014Z,130
2018-05-03T06:16:53.496Z,135
2018-05-03T06:18:03.940Z,140
2018-05-03T06:19:13.946Z,150
2018-05-03T06:20:23.967Z,170
2018-05-03T06:21:33.490Z,180
2018-05-03T06:22:43.232Z,185
2018-05-03T06:23:52.703Z,185
2018-05-03T06:25:02.450Z,185
2018-05-03T06:26:11.578Z,185
2018-05-03T06:27:21.328Z,180
2018-05-03T06:28:31.339Z,170
2018-05-03T06:29:41.352Z,165
2018-05-03T06:30:51.361Z,160
2018-05-03T06:32:01.102Z,155
2018-05-03T06:33:10.572Z,150
2018-05-03T06:34:20.411Z,150
2018-05-03T06:35:30.159Z,150
2018-05-03T06:36:40.167Z,145
2018-05-03T06:37:49.635Z,140
2018-05-03T06:38:59.778Z,135
2018-05-03T06:40:09.591Z,130
2018-05-03T06:41:19.095Z,130
2018-05-03T06:42:28.836Z,135
2018-05-03T06:43:38.839Z,140
2018-05-03T06:44:48.579Z,145
2018-05-03T06:45:58.660Z,155
2018-05-03T06:47:08.406Z,160
2018-05-03T06:48:18.148Z,160
2018-05-03T06:49:27.891Z,155
2018-05-03T06:50:37.914Z,160
2018-05-03T06:51:48.155Z,175
2018-05-03T06:52:58.162Z,185
2018-05-03T06:54:08.166Z,195
2018-05-03T06:55:18.168Z,195
2018-05-03T06:56:28.171Z,200
2018-05-03T06:57:37.913Z,210
2018-05-03T06:58:48.135Z,225
2018-05-03T06:59:57.875Z,235
2018-05-03T07:01:07.906Z,245
2018-05-03T07:02:17.115Z,250
2018-05-03T07:03:26.592Z,255
2018-05-03T07:04:36.733Z,255
2018-05-03T07:05:46.202Z,250
2018-05-03T07:06:55.951Z,250
2018-05-03T07:08:05.958Z,245
2018-05-03T07:09:15.705Z,255
2018-05-03T07:10:25.442Z,275
2018-05-03T07:11:35.496Z,290
2018-05-03T07:12:45.508Z,300
2018-05-03T07:13:55.244Z,305
2018-05-03T07:15:04.770Z,310
2018-05-03T07:16:14.881Z,320
2018-05-03T07:17:24.636Z,325
2018-05-03T07:18:34.376Z,330
2018-05-03T07:19:44.122Z,330
2018-05-03T07:20:54.230Z,340
2018-05-03T07:22:03.977Z,335
2018-05-03T07:23:13.993Z,330
2018-05-03T07:24:23.999Z,325
2018-05-03T07:25:33.474Z,325
2018-05-03T07:26:43.326Z,325
2018-05-03T07:27:53.051Z,330
2018-05-03T07:29:02.892Z,340
2018-05-03T07:30:12.644Z,350
2018-05-03T07:31:22.652Z,350
2018-05-03T07:32:32.656Z,350
2018-05-03T07:33:42.401Z,345
2018-05-03T07:34:52.672Z,350
2018-05-03T07:36:02.085Z,355
2018-05-03T07:37:11.947Z,360
2018-05-03T07:38:21.957Z,365
2018-05-03T07:39:31.705Z,375
2018-05-03T07:40:41.871Z,380
2018-05-03T07:41:51.618Z,375
2018-05-03T07:43:01.640Z,370
2018-05-03T07:44:11.386Z,365
2018-05-03T07:45:21.400Z,365
2018-05-03T07:46:31.419Z,360
2018-05-03T07:47:40.628Z,350
2018-05-03T07:48:50.219Z,335
2018-05-03T07:49:59.959Z,330
2018-05-03T07:51:09.730Z,320
2018-05-03T07:52:19.202Z,310
2018-05-03T07:53:29.244Z,310
2018-05-03T07:54:39.263Z,310
2018-05-03T07:55:49.010Z,315
2018-05-03T07:56:59.027Z,325
2018-05-03T07:58:08.765Z,335
2018-05-03T07:59:18.529Z,340
2018-05-03T08:00:28.535Z,345
2018-05-03T08:01:38.557Z,350
2018-05-03T08:02:48.565Z,355
2018-05-03T08:03:58.304Z,365
2018-05-03T08:05:07.778Z,365
2018-05-03T08:06:17.520Z,350
2018-05-03T08:07:27.527Z,350
2018-05-03T08:08:37.537Z,350
2018-05-03T08:09:47.010Z,360
2018-05-03T08:10:56.800Z,365
2018-05-03T08:12:06.821Z,365
2018-05-03T08:13:16.835Z,365
2018-05-03T08:14:26.846Z,360
2018-05-03T08:15:36.855Z,355
2018-05-03T08:16:46.592Z,350
2018-05-03T08:17:56.332Z,340
2018-05-03T08:19:05.805Z,330
2018-05-03T08:20:15.565Z,325
2018-05-03T08:21:24.774Z,320
2018-05-03T08:22:35.078Z,305
2018-05-03T08:23:44.818Z,300
2018-05-03T08:24:54.824Z,300
2018-05-03T08:26:04.564Z,305
2018-05-03T08:27:14.037Z,305
2018-05-03T08:28:24.046Z,305
2018-05-03T08:29:34.072Z,300
2018-05-03T08:30:43.707Z,305
2018-05-03T08:31:54.271Z,315
2018-05-03T08:33:04.384Z,320
2018-05-03T08:34:13.600Z,335
2018-05-03T08:35:23.616Z,345
2018-05-03T08:36:33.457Z,350
2018-05-03T08:37:42.938Z,355
2018-05-03T08:38:52.677Z,370
2018-05-03T08:40:02.422Z,390
2018-05-03T08:41:11.894Z,405
2018-05-03T08:42:21.907Z,405
2018-05-03T08:43:31.380Z,410
2018-05-03T08:44:40.598Z,415
2018-05-03T08:45:50.345Z,430
2018-05-03T08:47:00.355Z,450
2018-05-03T08:48:10.366Z,475
2018-05-03T08:49:20.380Z,475
2018-05-03T08:50:30.389Z,470
2018-05-03T08:51:40.410Z,465
2018-05-03T08:52:49.886Z,460
2018-05-03T08:53:59.895Z,455
2018-05-03T08:55:09.650Z,450
2018-05-03T08:56:19.669Z,450
2018-05-03T08:57:29.689Z,465
2018-05-03T08:58:39.441Z,465
2018-05-03T08:59:49.186Z,465
2018-05-03T09:00:59.011Z,460
2018-05-03T09:02:08.758Z,460
2018-05-03T09:03:18.505Z,475
2018-05-03T09:04:28.523Z,485
2018-05-03T09:05:38.266Z,500
2018-05-03T09:06:48.281Z,505
2018-05-03T09:07:58.705Z,495
2018-05-03T09:09:08.520Z,485
2018-05-03T09:10:18.532Z,465
2018-05-03T09:11:28.272Z,450
2018-05-03T09:12:37.746Z,430
2018-05-03T09:13:47.491Z,410
2018-05-03T09:14:57.497Z,410
2018-05-03T09:16:07.519Z,410
2018-05-03T09:17:17.592Z,415
2018-05-03T09:18:27.338Z,420
2018-05-03T09:19:37.346Z,425
2018-05-03T09:20:47.352Z,425
2018-05-03T09:21:57.097Z,420
2018-05-03T09:23:06.901Z,395
2018-05-03T09:24:16.382Z,360
2018-05-03T09:25:26.135Z,315
2018-05-03T09:26:35.882Z,280
2018-05-03T09:27:45.397Z,265
2018-05-03T09:28:54.940Z,275
2018-05-03T09:30:04.414Z,285
2018-05-03T09:31:13.893Z,295
2018-05-03T09:32:23.909Z,320
2018-05-03T09:33:33.651Z,350
2018-05-03T09:34:43.668Z,370
2018-05-03T09:35:53.681Z,405
2018-05-03T09:37:03.708Z,430
2018-05-03T09:38:12.919Z,445
2018-05-03T09:39:23.024Z,460
2018-05-03T09:40:33.156Z,475
2018-05-03T09:41:42.629Z,465
2018-05-03T09:42:52.636Z,430
2018-05-03T09:44:02.128Z,375
2018-05-03T09:45:12.140Z,330
2018-05-03T09:46:22.155Z,305
2018-05-03T09:47:32.166Z,290
2018-05-03T09:48:42.211Z,280
2018-05-03T09:49:52.220Z,280
2018-05-03T09:51:02.234Z,275
2018-05-03T09:52:11.723Z,285
2018-05-03T09:53:21.733Z,300
2018-05-03T09:54:31.739Z,305
2018-05-03T09:55:41.482Z,320
2018-05-03T09:56:51.229Z,345
2018-05-03T09:58:00.714Z,365
2018-05-03T09:59:10.189Z,375
2018-05-03T10:00:20.270Z,385
2018-05-03T10:01:29.748Z,380
2018-05-03T10:02:39.487Z,360
2018-05-03T10:03:49.665Z,345
2018-05-03T10:04:59.540Z,335
2018-05-03T10:06:09.574Z,315
2018-05-03T10:07:19.599Z,290
2018-05-03T10:08:29.347Z,260
2018-05-03T10:09:39.354Z,235
2018-05-03T10:10:49.368Z,230
2018-05-03T10:11:59.111Z,225
2018-05-03T10:13:09.150Z,235
2018-05-03T10:14:18.633Z,255
2018-05-03T10:15:28.380Z,290
2018-05-03T10:16:37.856Z,310
2018-05-03T10:17:47.342Z,310
2018-05-03T10:18:57.353Z,300
2018-05-03T10:20:07.364Z,285
2018-05-03T10:21:17.391Z,295
2018-05-03T10:22:27.205Z,315
2018-05-03T10:23:37.212Z,345
2018-05-03T10:24:47.218Z,385
2018-05-03T10:25:56.691Z,415
2018-05-03T10:27:06.436Z,435
2018-05-03T10:28:16.177Z,440
2018-05-03T10:29:25.990Z,450
2018-05-03T10:30:36.010Z,450
2018-05-03T10:31:46.027Z,450
2018-05-03T10:32:56.034Z,445
2018-05-03T10:34:06.068Z,420
2018-05-03T10:35:15.815Z,415
2018-05-03T10:36:26.233Z,425
2018-05-03T10:37:36.248Z,440
2018-05-03T10:38:45.723Z,445
2018-05-03T10:39:55.732Z,440
2018-05-03T10:41:05.766Z,435
2018-05-03T10:42:15.200Z,435
2018-05-03T10:43:24.976Z,435
2018-05-03T10:44:34.723Z,435
2018-05-03T10:45:44.732Z,420
2018-05-03T10:46:54.204Z,405
2018-05-03T10:48:03.954Z,405
2018-05-03T10:49:13.646Z,405
2018-05-03T10:50:23.400Z,410
2018-05-03T10:51:33.150Z,390
2018-05-03T10:52:42.895Z,360
2018-05-03T10:53:52.378Z,335
2018-05-03T10:55:02.402Z,325
2018-05-03T10:56:11.894Z,330
2018-05-03T10:57:21.978Z,330
2018-05-03T10:58:31.731Z,325
2018-05-03T10:59:41.205Z,320
2018-05-03T11:00:51.222Z,325
2018-05-03T11:02:00.698Z,330
2018-05-03T11:03:10.181Z,315
2018-05-03T11:04:19.658Z,305
2018-05-03T11:05:30.305Z,315
2018-05-03T11:06:40.342Z,320
2018-05-03T11:07:50.084Z,315
2018-05-03T11:08:59.823Z,320
2018-05-03T11:10:09.843Z,335
2018-05-03T11:11:20.224Z,340
2018-05-03T11:12:30.238Z,340
2018-05-03T11:13:40.087Z,325
2018-05-03T11:14:49.563Z,305
2018-05-03T11:15:59.580Z,305
2018-05-03T11:17:09.323Z,305
2018-05-03T11:18:19.061Z,305
2018-05-03T11:19:29.071Z,310
2018-05-03T11:20:38.823Z,320
2018-05-03T11:21:48.031Z,340
2018-05-03T11:22:58.055Z,355
2018-05-03T11:24:07.537Z,365
2018-05-03T11:25:17.549Z,355
2018-05-03T11:26:27.561Z,330
2018-05-03T11:27:37.302Z,315
2018-05-03T11:28:46.775Z,300
2018-05-03T11:29:56.250Z,275
2018-05-03T11:31:06.804Z,265
2018-05-03T11:32:16.810Z,265
2018-05-03T11:33:26.558Z,265
2018-05-03T11:34:36.126Z,275
2018-05-03T11:35:45.881Z,280
2018-05-03T11:36:56.041Z,285
2018-05-03T11:38:05.744Z,290
2018-05-03T11:39:15.217Z,295
2018-05-03T11:40:25.223Z,310
2018-05-03T11:41:34.969Z,325
2018-05-03T11:42:45.447Z,320
2018-05-03T11:43:55.190Z,315
2018-05-03T11:45:05.198Z,320
2018-05-03T11:46:15.211Z,325
2018-05-03T11:47:25.222Z,355
2018-05-03T11:48:35.233Z,390
2018-05-03T11:49:45.240Z,415
2018-05-03T11:50:54.715Z,440
2018-05-03T11:52:04.723Z,450
2018-05-03T11:53:14.204Z,435
2018-05-03T11:54:24.234Z,420
2018-05-03T11:55:33.982Z,400
2018-05-03T11:56:43.722Z,390
2018-05-03T11:57:53.195Z,385
2018-05-03T11:59:02.709Z,385
2018-05-03T12:00:12.720Z,365
2018-05-03T12:01:22.468Z,335
2018-05-03T12:02:32.134Z,315
2018-05-03T12:03:42.154Z,285
2018-05-03T12:04:51.903Z,260
2018-05-03T12:06:01.729Z,245
2018-05-03T12:07:11.751Z,235
2018-05-03T12:08:21.760Z,240
2018-05-03T12:09:31.556Z,245
2018-05-03T12:10:41.295Z,260
2018-05-03T12:11:51.752Z,275
2018-05-03T12:13:01.596Z,295
2018-05-03T12:14:11.350Z,305
2018-05-03T12:15:21.089Z,310
2018-05-03T12:16:30.838Z,305
2018-05-03T12:17:40.850Z,295
2018-05-03T12:18:50.604Z,280
2018-05-03T12:20:00.347Z,260
2018-05-03T12:21:09.824Z,235
2018-05-03T12:22:19.831Z,220
2018-05-03T12:23:29.838Z,205
2018-05-03T12:24:39.772Z,200
2018-05-03T12:25:49.514Z,210
2018-05-03T12:26:59.527Z,210
2018-05-03T12:28:09.537Z,210
2018-05-03T12:29:19.549Z,210
2018-05-03T12:30:29.552Z,210
2018-05-03T12:31:39.570Z,215
2018-05-03T12:32:49.574Z,205
2018-05-03T12:33:59.593Z,190
2018-05-03T12:35:09.743Z,180
2018-05-03T12:36:19.489Z,175
2018-05-03T12:37:29.502Z,170
2018-05-03T12:38:39.618Z,165
2018-05-03T12:39:49.635Z,170
2018-05-03T12:40:59.108Z,180
2018-05-03T12:42:08.582Z,200
2018-05-03T12:43:17.789Z,225
2018-05-03T12:44:27.797Z,230
2018-05-03T12:45:37.812Z,235
2018-05-03T12:46:47.825Z,230
2018-05-03T12:47:57.565Z,230
2018-05-03T12:49:07.041Z,225
2018-05-03T12:50:16.851Z,215
2018-05-03T12:51:26.593Z,205
2018-05-03T12:52:36.065Z,205
2018-05-03T12:53:46.071Z,210
2018-05-03T12:54:55.541Z,225
2018-05-03T12:56:05.546Z,250
2018-05-03T12:57:15.284Z,270
2018-05-03T12:58:24.756Z,280
2018-05-03T12:59:34.495Z,285
2018-05-03T13:00:44.552Z,280
2018-05-03T13:01:54.612Z,280
2018-05-03T13:03:04.356Z,290
2018-05-03T13:04:14.144Z,315
2018-05-03T13:05:23.621Z,340
2018-05-03T13:06:33.371Z,355
2018-05-03T13:07:43.384Z,385
2018-05-03T13:08:53.392Z,395
2018-05-03T13:10:02.937Z,375
2018-05-03T13:11:12.411Z,330
2018-05-03T13:12:22.439Z,290
2018-05-03T13:13:32.460Z,245
2018-05-03T13:14:42.011Z,205
2018-05-03T13:15:52.322Z,165
2018-05-03T13:17:02.339Z,150
2018-05-03T13:18:12.092Z,135
2018-05-03T13:19:22.111Z,120
2018-05-03T13:20:32.124Z,105
2018-05-03T13:21:42.228Z,90
2018-05-03T13:22:52.233Z,85
2018-05-03T13:24:02.243Z,90
2018-05-03T13:25:11.998Z,95
2018-05-03T13:26:22.013Z,100
2018-05-03T13:27:32.021Z,105
2018-05-03T13:28:41.492Z,100
2018-05-03T13:29:51.232Z,90
2018-05-03T13:31:01.239Z,80
2018-05-03T13:32:10.714Z,75
2018-05-03T13:33:20.733Z,75
2018-05-03T13:34:31.064Z,80
2018-05-03T13:35:41.081Z,90
2018-05-03T13:36:51.086Z,100
2018-05-03T13:38:01.094Z,105
2018-05-03T13:39:11.002Z,105
2018-05-03T13:40:21.091Z,105
2018-05-03T13:41:31.839Z,100
2018-05-03T13:42:42.311Z,95
2018-05-03T13:43:52.055Z,90
2018-05-03T13:45:02.307Z,90
2018-05-03T13:46:12.064Z,85
2018-05-03T13:47:21.841Z,80
2018-05-03T13:48:31.584Z,75
2018-05-03T13:49:41.589Z,65
2018-05-03T13:50:51.063Z,60
2018-05-03T13:52:01.088Z,65
2018-05-03T13:53:10.844Z,70
2018-05-03T13:54:20.586Z,75
2018-05-03T13:55:30.198Z,75
2018-05-03T13:56:40.217Z,75
2018-05-03T13:57:49.965Z,80
2018-05-03T13:58:59.702Z,80
2018-05-03T14:00:09.442Z,75
2018-05-03T14:01:19.526Z,70
2018-05-03T14:02:29.528Z,65
2018-05-03T14:03:39.541Z,65
2018-05-03T14:04:49.558Z,65
2018-05-03T14:05:59.570Z,65
2018-05-03T14:07:09.838Z,65
2018-05-03T14:08:19.886Z,65
2018-05-03T14:09:29.635Z,60
2018-05-03T14:10:39.645Z,60
2018-05-03T14:11:49.651Z,60
2018-05-03T14:12:59.644Z,60
2018-05-03T14:14:09.448Z,55
2018-05-03T14:15:19.193Z,50
2018-05-03T14:16:29.194Z,45
2018-05-03T14:17:38.405Z,40
2018-05-03T14:18:48.160Z,45
2018-05-03T14:19:57.898Z,55
2018-05-03T14:21:07.978Z,65
2018-05-03T14:22:17.996Z,70
2018-05-03T14:23:27.735Z,70
2018-05-03T14:24:37.214Z,70
2018-05-03T14:25:47.060Z,70
2018-05-03T14:26:57.082Z,70
2018-05-03T14:28:06.286Z,75
2018-05-03T14:29:16.028Z,70
2018-05-03T14:30:25.779Z,70
2018-05-03T14:31:35.261Z,75
2018-05-03T14:32:44.997Z,75
2018-05-03T14:33:54.208Z,80
2018-05-03T14:35:04.228Z,85
2018-05-03T14:36:13.166Z,90
2018-05-03T14:37:23.271Z,90
2018-05-03T14:38:33.012Z,100
2018-05-03T14:39:43.022Z,105
2018-05-03T14:40:52.528Z,110
2018-05-03T14:42:02.534Z,115
2018-05-03T14:43:12.542Z,120
2018-05-03T14:44:22.013Z,120
2018-05-03T14:45:32.031Z,120
2018-05-03T14:46:41.774Z,125
2018-05-03T14:47:51.780Z,130
2018-05-03T14:49:01.786Z,140
2018-05-03T14:50:11.260Z,140
2018-05-03T14:51:21.001Z,140
2018-05-03T14:52:30.742Z,140
2018-05-03T14:53:40.760Z,135
2018-05-03T14:54:50.800Z,130
2018-05-03T14:56:00.810Z,125
2018-05-03T14:57:10.014Z,120
2018-05-03T14:58:19.756Z,115
2018-05-03T14:59:28.959Z,105
2018-05-03T15:00:38.701Z,100
2018-05-03T15:01:48.447Z,95
2018-05-03T15:02:57.932Z,90
2018-05-03T15:04:07.684Z,90
2018-05-03T15:05:17.692Z,85
2018-05-03T15:06:27.482Z,80
2018-05-03T15:07:37.508Z,75
2018-05-03T15:08:47.519Z,75
2018-05-03T15:09:56.992Z,75
2018-05-03T15:11:07.011Z,75
2018-05-03T15:12:17.016Z,70
2018-05-03T15:13:26.774Z,70
2018-05-03T15:14:36.776Z,70
2018-05-03T15:15:46.514Z,70
2018-05-03T15:16:56.523Z,75
2018-05-03T15:18:06.276Z,75
2018-05-03T15:19:16.020Z,85
2018-05-03T15:20:26.028Z,90
2018-05-03T15:21:35.504Z,95
2018-05-03T15:22:45.236Z,95
2018-05-03T15:23:55.364Z,95
2018-05-03T15:25:05.382Z,90
2018-05-03T15:26:15.123Z,90
2018-05-03T15:27:24.620Z,90
2018-05-03T15:28:34.364Z,90
2018-05-03T15:29:44.372Z,90
2018-05-03T15:30:54.120Z,90
2018-05-03T15:32:03.875Z,90
2018-05-03T15:33:13.346Z,85
2018-05-03T15:34:22.831Z,85
2018-05-03T15:35:32.569Z,80
2018-05-03T15:36:42.581Z,85
2018-05-03T15:37:52.323Z,85
2018-05-03T15:39:02.327Z,85
2018-05-03T15:40:11.804Z,80
2018-05-03T15:41:21.541Z,75
2018-05-03T15:42:31.547Z,75
2018-05-03T15:43:41.295Z,70
2018-05-03T15:44:51.075Z,70
2018-05-03T15:46:01.084Z,65
2018-05-03T15:47:11.106Z,60
2018-05-03T15:48:20.853Z,55
2018-05-03T15:49:30.590Z,55
2018-05-03T15:50:40.593Z,60
2018-05-03T15:51:50.098Z,60
2018-05-03T15:52:59.936Z,60
2018-05-03T15:54:09.946Z,65
2018-05-03T15:55:19.956Z,65
2018-05-03T15:56:29.164Z,65
2018-05-03T15:57:39.178Z,70
2018-05-03T15:58:48.922Z,75
2018-05-03T15:59:58.666Z,75
2018-05-03T16:01:08.416Z,85
2018-05-03T16:02:18.425Z,85
2018-05-03T16:03:27.901Z,85
2018-05-03T16:04:37.907Z,80
2018-05-03T16:05:47.390Z,85
2018-05-03T16:06:57.414Z,85
2018-05-03T16:08:07.157Z,90
2018-05-03T16:09:17.164Z,95
2018-05-03T16:10:27.218Z,100
2018-05-03T16:11:36.960Z,105
2018-05-03T16:12:46.964Z,110
2018-05-03T16:13:56.770Z,125
2018-05-03T16:15:06.238Z,135
2018-05-03T16:16:15.450Z,155
2018-05-03T16:17:25.201Z,175
2018-05-03T16:18:34.937Z,195
2018-05-03T16:19:44.951Z,220
2018-05-03T16:20:54.698Z,240
2018-05-03T16:22:04.708Z,245
2018-05-03T16:23:14.442Z,230
2018-05-03T16:24:24.445Z,205
2018-05-03T16:25:33.916Z,190
2018-05-03T16:26:43.922Z,165
2018-05-03T16:27:53.391Z,140